sensor_id;sensor_type;location;lat;lon;timestamp;P1;durP1;ratioP1;P2;durP2;ratioP2
71759;SDS011;59919;48.112;16.280;2023-03-31T00:02:08;0.75;;;0.60;;
71759;SDS011;59919;48.112;16.280;2023-03-31T00:04:53;0.57;;;0.57;;
71759;SDS011;59919;48.112;16.280;2023-03-31T00:07:29;0.70;;;0.60;;
71759;SDS011;59919;48.112;16.280;2023-03-31T00:10:01;0.93;;;0.73;;
71759;SDS011;59919;48.112;16.280;2023-03-31T00:12:34;0.93;;;0.63;;
71759;SDS011;59919;48.112;16.280;2023-03-31T00:15:11;0.50;;;0.50;;
71759;SDS011;59919;48.112;16.280;2023-03-31T00:17:42;0.57;;;0.57;;
71759;SDS011;59919;48.112;16.280;2023-03-31T00:20:21;0.70;;;0.63;;
71759;SDS011;59919;48.112;16.280;2023-03-31T00:22:55;0.93;;;0.55;;
71759;SDS011;59919;48.112;16.280;2023-03-31T00:25:27;1.30;;;0.63;;
71759;SDS011;59919;48.112;16.280;2023-03-31T00:27:58;0.82;;;0.60;;
71759;SDS011;59919;48.112;16.280;2023-03-31T00:30:31;0.68;;;0.60;;
71759;SDS011;59919;48.112;16.280;2023-03-31T00:33:03;0.65;;;0.50;;
71759;SDS011;59919;48.112;16.280;2023-03-31T00:35:34;1.30;;;0.45;;
71759;SDS011;59919;48.112;16.280;2023-03-31T00:38:08;0.73;;;0.50;;
71759;SDS011;59919;48.112;16.280;2023-03-31T00:40:44;0.70;;;0.50;;
71759;SDS011;59919;48.112;16.280;2023-03-31T00:48:51;0.77;;;0.60;;
71759;SDS011;59919;48.112;16.280;2023-03-31T00:51:30;1.65;;;0.70;;
71759;SDS011;59919;48.112;16.280;2023-03-31T00:54:04;0.80;;;0.60;;
71759;SDS011;59919;48.112;16.280;2023-03-31T00:56:39;0.60;;;0.50;;
71759;SDS011;59919;48.112;16.280;2023-03-31T00:59:14;0.50;;;0.50;;
71759;SDS011;59919;48.112;16.280;2023-03-31T01:01:46;0.80;;;0.60;;
71759;SDS011;59919;48.112;16.280;2023-03-31T01:04:20;0.60;;;0.60;;
71759;SDS011;59919;48.112;16.280;2023-03-31T01:06:59;0.65;;;0.50;;
71759;SDS011;59919;48.112;16.280;2023-03-31T01:09:57;0.50;;;0.50;;
71759;SDS011;59919;48.112;16.280;2023-03-31T01:12:36;0.73;;;0.70;;
71759;SDS011;59919;48.112;16.280;2023-03-31T01:15:12;0.93;;;0.70;;
71759;SDS011;59919;48.112;16.280;2023-03-31T01:17:45;1.30;;;0.60;;
71759;SDS011;59919;48.112;16.280;2023-03-31T01:43:20;1.02;;;0.63;;
71759;SDS011;59919;48.112;16.280;2023-03-31T01:45:58;1.52;;;0.60;;
71759;SDS011;59919;48.112;16.280;2023-03-31T01:54:19;0.80;;;0.63;;
71759;SDS011;59919;48.112;16.280;2023-03-31T01:57:26;0.55;;;0.55;;
71759;SDS011;59919;48.112;16.280;2023-03-31T02:05:40;0.90;;;0.70;;
71759;SDS011;59919;48.112;16.280;2023-03-31T02:08:19;0.60;;;0.60;;
71759;SDS011;59919;48.112;16.280;2023-03-31T02:10:56;0.80;;;0.70;;
71759;SDS011;59919;48.112;16.280;2023-03-31T02:13:44;0.90;;;0.73;;
71759;SDS011;59919;48.112;16.280;2023-03-31T02:16:21;0.73;;;0.60;;
71759;SDS011;59919;48.112;16.280;2023-03-31T02:18:57;0.95;;;0.80;;
71759;SDS011;59919;48.112;16.280;2023-03-31T02:21:36;1.30;;;0.80;;
71759;SDS011;59919;48.112;16.280;2023-03-31T02:24:10;0.80;;;0.60;;
71759;SDS011;59919;48.112;16.280;2023-03-31T02:29:33;1.02;;;0.57;;
71759;SDS011;59919;48.112;16.280;2023-03-31T02:32:17;0.88;;;0.63;;
71759;SDS011;59919;48.112;16.280;2023-03-31T02:34:53;0.82;;;0.73;;
71759;SDS011;59919;48.112;16.280;2023-03-31T02:37:27;0.98;;;0.80;;
71759;SDS011;59919;48.112;16.280;2023-03-31T02:40:02;2.25;;;0.70;;
71759;SDS011;59919;48.112;16.280;2023-03-31T02:42:39;0.60;;;0.60;;
71759;SDS011;59919;48.112;16.280;2023-03-31T02:48:29;0.80;;;0.73;;
71759;SDS011;59919;48.112;16.280;2023-03-31T02:51:13;0.82;;;0.70;;
71759;SDS011;59919;48.112;16.280;2023-03-31T03:00:23;0.77;;;0.75;;
71759;SDS011;59919;48.112;16.280;2023-03-31T03:06:43;1.83;;;0.90;;
71759;SDS011;59919;48.112;16.280;2023-03-31T03:15:09;1.15;;;0.68;;
71759;SDS011;59919;48.112;16.280;2023-03-31T03:17:43;0.90;;;0.60;;
71759;SDS011;59919;48.112;16.280;2023-03-31T03:20:18;1.08;;;0.80;;
71759;SDS011;59919;48.112;16.280;2023-03-31T03:22:52;0.77;;;0.60;;
71759;SDS011;59919;48.112;16.280;2023-03-31T03:25:25;0.95;;;0.80;;
71759;SDS011;59919;48.112;16.280;2023-03-31T03:27:59;1.00;;;0.85;;
71759;SDS011;59919;48.112;16.280;2023-03-31T03:30:33;1.40;;;0.80;;
71759;SDS011;59919;48.112;16.280;2023-03-31T03:33:07;1.20;;;1.00;;
71759;SDS011;59919;48.112;16.280;2023-03-31T03:35:46;1.27;;;0.80;;
71759;SDS011;59919;48.112;16.280;2023-03-31T03:38:18;0.98;;;0.77;;
71759;SDS011;59919;48.112;16.280;2023-03-31T03:40:51;2.00;;;0.80;;
71759;SDS011;59919;48.112;16.280;2023-03-31T03:43:25;0.80;;;0.80;;
71759;SDS011;59919;48.112;16.280;2023-03-31T03:45:56;0.85;;;0.80;;
71759;SDS011;59919;48.112;16.280;2023-03-31T03:48:33;2.08;;;1.00;;
71759;SDS011;59919;48.112;16.280;2023-03-31T03:51:04;1.25;;;0.80;;
71759;SDS011;59919;48.112;16.280;2023-03-31T03:53:38;1.15;;;0.95;;
71759;SDS011;59919;48.112;16.280;2023-03-31T03:56:09;1.05;;;0.80;;
71759;SDS011;59919;48.112;16.280;2023-03-31T03:58:40;0.82;;;0.82;;
71759;SDS011;59919;48.112;16.280;2023-03-31T04:01:11;1.83;;;0.95;;
71759;SDS011;59919;48.112;16.280;2023-03-31T04:03:44;1.05;;;0.70;;
71759;SDS011;59919;48.112;16.280;2023-03-31T04:06:17;1.33;;;1.23;;
71759;SDS011;59919;48.112;16.280;2023-03-31T04:08:48;0.77;;;0.73;;
71759;SDS011;59919;48.112;16.280;2023-03-31T04:11:24;1.20;;;1.05;;
71759;SDS011;59919;48.112;16.280;2023-03-31T04:13:58;1.20;;;0.80;;
71759;SDS011;59919;48.112;16.280;2023-03-31T04:16:34;1.00;;;0.88;;
71759;SDS011;59919;48.112;16.280;2023-03-31T04:19:05;1.15;;;1.00;;
71759;SDS011;59919;48.112;16.280;2023-03-31T04:21:52;1.42;;;0.70;;
71759;SDS011;59919;48.112;16.280;2023-03-31T04:24:34;1.00;;;0.75;;
71759;SDS011;59919;48.112;16.280;2023-03-31T04:27:08;1.05;;;0.82;;
71759;SDS011;59919;48.112;16.280;2023-03-31T04:29:40;1.90;;;1.00;;
71759;SDS011;59919;48.112;16.280;2023-03-31T04:32:24;0.80;;;0.80;;
71759;SDS011;59919;48.112;16.280;2023-03-31T04:34:57;0.85;;;0.80;;
71759;SDS011;59919;48.112;16.280;2023-03-31T04:37:32;1.58;;;0.85;;
71759;SDS011;59919;48.112;16.280;2023-03-31T04:40:04;1.23;;;0.95;;
71759;SDS011;59919;48.112;16.280;2023-03-31T04:42:39;0.80;;;0.70;;
71759;SDS011;59919;48.112;16.280;2023-03-31T04:45:15;1.20;;;1.00;;
71759;SDS011;59919;48.112;16.280;2023-03-31T04:47:50;0.85;;;0.75;;
71759;SDS011;59919;48.112;16.280;2023-03-31T04:50:27;1.60;;;0.70;;
71759;SDS011;59919;48.112;16.280;2023-03-31T04:53:01;2.35;;;1.00;;
71759;SDS011;59919;48.112;16.280;2023-03-31T04:55:33;1.58;;;0.90;;
71759;SDS011;59919;48.112;16.280;2023-03-31T04:58:04;1.00;;;0.90;;
71759;SDS011;59919;48.112;16.280;2023-03-31T05:00:41;2.08;;;1.00;;
71759;SDS011;59919;48.112;16.280;2023-03-31T05:03:12;0.83;;;0.73;;
71759;SDS011;59919;48.112;16.280;2023-03-31T05:05:45;1.25;;;0.90;;
71759;SDS011;59919;48.112;16.280;2023-03-31T05:08:18;1.27;;;0.90;;
71759;SDS011;59919;48.112;16.280;2023-03-31T05:10:53;1.45;;;0.90;;
71759;SDS011;59919;48.112;16.280;2023-03-31T05:13:27;1.27;;;1.10;;
71759;SDS011;59919;48.112;16.280;2023-03-31T05:16:07;1.50;;;0.90;;
71759;SDS011;59919;48.112;16.280;2023-03-31T05:18:48;1.20;;;0.93;;
71759;SDS011;59919;48.112;16.280;2023-03-31T05:21:23;1.20;;;1.00;;
71759;SDS011;59919;48.112;16.280;2023-03-31T05:23:58;1.10;;;0.82;;
71759;SDS011;59919;48.112;16.280;2023-03-31T05:26:34;1.25;;;0.80;;
71759;SDS011;59919;48.112;16.280;2023-03-31T05:29:05;1.88;;;1.17;;
71759;SDS011;59919;48.112;16.280;2023-03-31T05:31:41;1.67;;;0.80;;
71759;SDS011;59919;48.112;16.280;2023-03-31T05:34:15;1.35;;;0.90;;
71759;SDS011;59919;48.112;16.280;2023-03-31T05:36:49;1.30;;;1.13;;
71759;SDS011;59919;48.112;16.280;2023-03-31T05:39:23;0.80;;;0.80;;
71759;SDS011;59919;48.112;16.280;2023-03-31T05:41:57;1.10;;;0.95;;
71759;SDS011;59919;48.112;16.280;2023-03-31T05:44:28;1.92;;;0.95;;
71759;SDS011;59919;48.112;16.280;2023-03-31T05:46:59;1.15;;;1.00;;
71759;SDS011;59919;48.112;16.280;2023-03-31T05:49:33;1.02;;;0.80;;
71759;SDS011;59919;48.112;16.280;2023-03-31T05:52:07;0.95;;;0.70;;
71759;SDS011;59919;48.112;16.280;2023-03-31T05:54:38;1.40;;;1.00;;
71759;SDS011;59919;48.112;16.280;2023-03-31T05:57:10;0.90;;;0.80;;
71759;SDS011;59919;48.112;16.280;2023-03-31T05:59:42;1.85;;;1.13;;
71759;SDS011;59919;48.112;16.280;2023-03-31T06:02:15;1.00;;;0.80;;
71759;SDS011;59919;48.112;16.280;2023-03-31T06:04:47;1.17;;;1.00;;
71759;SDS011;59919;48.112;16.280;2023-03-31T06:07:20;1.45;;;0.90;;
71759;SDS011;59919;48.112;16.280;2023-03-31T06:09:58;0.90;;;0.80;;
71759;SDS011;59919;48.112;16.280;2023-03-31T06:12:30;1.48;;;1.02;;
71759;SDS011;59919;48.112;16.280;2023-03-31T06:15:02;0.80;;;0.80;;
71759;SDS011;59919;48.112;16.280;2023-03-31T06:17:33;1.70;;;0.90;;
71759;SDS011;59919;48.112;16.280;2023-03-31T06:20:09;1.67;;;0.90;;
71759;SDS011;59919;48.112;16.280;2023-03-31T06:22:40;1.40;;;0.90;;
71759;SDS011;59919;48.112;16.280;2023-03-31T06:25:11;1.13;;;0.95;;
71759;SDS011;59919;48.112;16.280;2023-03-31T06:27:45;1.67;;;0.93;;
71759;SDS011;59919;48.112;16.280;2023-03-31T06:30:20;1.17;;;0.80;;
71759;SDS011;59919;48.112;16.280;2023-03-31T06:32:54;2.15;;;0.85;;
71759;SDS011;59919;48.112;16.280;2023-03-31T06:35:28;1.00;;;0.90;;
71759;SDS011;59919;48.112;16.280;2023-03-31T06:37:59;1.38;;;0.90;;
71759;SDS011;59919;48.112;16.280;2023-03-31T06:40:33;1.02;;;0.88;;
71759;SDS011;59919;48.112;16.280;2023-03-31T06:43:12;1.08;;;0.70;;
71759;SDS011;59919;48.112;16.280;2023-03-31T06:45:45;1.45;;;0.85;;
71759;SDS011;59919;48.112;16.280;2023-03-31T06:48:19;1.63;;;0.90;;
71759;SDS011;59919;48.112;16.280;2023-03-31T06:50:54;2.25;;;0.77;;
71759;SDS011;59919;48.112;16.280;2023-03-31T06:53:28;3.25;;;0.95;;
71759;SDS011;59919;48.112;16.280;2023-03-31T06:56:00;4.97;;;0.80;;
71759;SDS011;59919;48.112;16.280;2023-03-31T06:58:33;1.55;;;0.70;;
71759;SDS011;59919;48.112;16.280;2023-03-31T07:01:08;4.03;;;0.85;;
71759;SDS011;59919;48.112;16.280;2023-03-31T07:03:41;1.58;;;0.70;;
71759;SDS011;59919;48.112;16.280;2023-03-31T07:06:13;1.65;;;0.75;;
71759;SDS011;59919;48.112;16.280;2023-03-31T07:08:46;1.23;;;0.90;;
71759;SDS011;59919;48.112;16.280;2023-03-31T07:11:21;0.68;;;0.60;;
71759;SDS011;59919;48.112;16.280;2023-03-31T07:13:57;1.40;;;0.77;;
71759;SDS011;59919;48.112;16.280;2023-03-31T07:16:28;3.35;;;0.70;;
71759;SDS011;59919;48.112;16.280;2023-03-31T07:19:04;1.25;;;0.90;;
71759;SDS011;59919;48.112;16.280;2023-03-31T07:21:40;0.60;;;0.60;;
71759;SDS011;59919;48.112;16.280;2023-03-31T07:24:11;1.55;;;0.73;;
71759;SDS011;59919;48.112;16.280;2023-03-31T07:26:42;2.78;;;0.80;;
71759;SDS011;59919;48.112;16.280;2023-03-31T07:29:13;1.55;;;0.75;;
71759;SDS011;59919;48.112;16.280;2023-03-31T07:31:49;2.65;;;0.88;;
71759;SDS011;59919;48.112;16.280;2023-03-31T07:34:21;1.15;;;0.75;;
71759;SDS011;59919;48.112;16.280;2023-03-31T07:36:55;2.05;;;1.05;;
71759;SDS011;59919;48.112;16.280;2023-03-31T07:39:31;1.45;;;0.75;;
71759;SDS011;59919;48.112;16.280;2023-03-31T07:42:12;3.63;;;0.80;;
71759;SDS011;59919;48.112;16.280;2023-03-31T07:44:46;1.13;;;0.73;;
71759;SDS011;59919;48.112;16.280;2023-03-31T07:47:20;2.03;;;0.60;;
71759;SDS011;59919;48.112;16.280;2023-03-31T07:49:54;6.70;;;0.98;;
71759;SDS011;59919;48.112;16.280;2023-03-31T07:52:25;6.10;;;1.00;;
71759;SDS011;59919;48.112;16.280;2023-03-31T07:54:59;5.75;;;0.82;;
71759;SDS011;59919;48.112;16.280;2023-03-31T07:57:30;7.55;;;1.27;;
71759;SDS011;59919;48.112;16.280;2023-03-31T08:00:02;2.95;;;0.70;;
71759;SDS011;59919;48.112;16.280;2023-03-31T08:02:40;0.77;;;0.60;;
71759;SDS011;59919;48.112;16.280;2023-03-31T08:05:13;3.60;;;0.70;;
71759;SDS011;59919;48.112;16.280;2023-03-31T08:07:51;3.25;;;0.80;;
71759;SDS011;59919;48.112;16.280;2023-03-31T08:10:25;2.25;;;0.80;;
71759;SDS011;59919;48.112;16.280;2023-03-31T08:12:57;2.78;;;0.82;;
71759;SDS011;59919;48.112;16.280;2023-03-31T08:15:30;1.08;;;0.73;;
71759;SDS011;59919;48.112;16.280;2023-03-31T08:18:06;3.03;;;0.80;;
71759;SDS011;59919;48.112;16.280;2023-03-31T08:20:39;2.63;;;1.35;;
71759;SDS011;59919;48.112;16.280;2023-03-31T08:23:13;3.70;;;0.65;;
71759;SDS011;59919;48.112;16.280;2023-03-31T08:25:44;2.65;;;0.70;;
71759;SDS011;59919;48.112;16.280;2023-03-31T08:28:15;2.22;;;0.68;;
71759;SDS011;59919;48.112;16.280;2023-03-31T08:30:52;6.35;;;0.80;;
71759;SDS011;59919;48.112;16.280;2023-03-31T08:33:28;1.48;;;0.60;;
71759;SDS011;59919;48.112;16.280;2023-03-31T08:36:06;5.22;;;0.90;;
71759;SDS011;59919;48.112;16.280;2023-03-31T08:38:41;1.27;;;0.85;;
71759;SDS011;59919;48.112;16.280;2023-03-31T08:41:20;1.25;;;0.70;;
71759;SDS011;59919;48.112;16.280;2023-03-31T08:44:10;1.80;;;0.73;;
71759;SDS011;59919;48.112;16.280;2023-03-31T08:46:53;1.77;;;0.70;;
71759;SDS011;59919;48.112;16.280;2023-03-31T08:49:53;3.30;;;0.70;;
71759;SDS011;59919;48.112;16.280;2023-03-31T08:52:37;1.58;;;0.82;;
71759;SDS011;59919;48.112;16.280;2023-03-31T08:55:19;3.10;;;0.63;;
71759;SDS011;59919;48.112;16.280;2023-03-31T08:57:59;1.77;;;0.77;;
71759;SDS011;59919;48.112;16.280;2023-03-31T09:00:37;3.08;;;0.90;;
71759;SDS011;59919;48.112;16.280;2023-03-31T09:03:32;1.65;;;0.77;;
71759;SDS011;59919;48.112;16.280;2023-03-31T09:06:13;1.90;;;0.80;;
71759;SDS011;59919;48.112;16.280;2023-03-31T09:08:50;1.17;;;0.80;;
71759;SDS011;59919;48.112;16.280;2023-03-31T09:11:35;1.42;;;0.90;;
71759;SDS011;59919;48.112;16.280;2023-03-31T09:14:30;1.13;;;0.82;;
71759;SDS011;59919;48.112;16.280;2023-03-31T09:20:02;2.30;;;0.70;;
71759;SDS011;59919;48.112;16.280;2023-03-31T09:22:48;1.50;;;0.75;;
71759;SDS011;59919;48.112;16.280;2023-03-31T09:25:25;1.08;;;0.73;;
71759;SDS011;59919;48.112;16.280;2023-03-31T09:30:34;1.20;;;0.60;;
71759;SDS011;59919;48.112;16.280;2023-03-31T09:33:13;1.25;;;0.52;;
71759;SDS011;59919;48.112;16.280;2023-03-31T09:35:47;1.63;;;0.70;;
71759;SDS011;59919;48.112;16.280;2023-03-31T09:38:19;0.70;;;0.60;;
71759;SDS011;59919;48.112;16.280;2023-03-31T09:40:54;1.52;;;0.55;;
71759;SDS011;59919;48.112;16.280;2023-03-31T09:43:30;1.48;;;0.73;;
71759;SDS011;59919;48.112;16.280;2023-03-31T09:49:01;1.25;;;0.80;;
71759;SDS011;59919;48.112;16.280;2023-03-31T09:51:41;3.60;;;0.70;;
71759;SDS011;59919;48.112;16.280;2023-03-31T09:54:29;1.80;;;0.60;;
71759;SDS011;59919;48.112;16.280;2023-03-31T09:57:40;3.22;;;0.80;;
71759;SDS011;59919;48.112;16.280;2023-03-31T10:02:47;3.10;;;0.70;;
71759;SDS011;59919;48.112;16.280;2023-03-31T10:07:52;1.10;;;0.70;;
71759;SDS011;59919;48.112;16.280;2023-03-31T10:10:51;0.75;;;0.50;;
71759;SDS011;59919;48.112;16.280;2023-03-31T10:13:28;0.98;;;0.70;;
71759;SDS011;59919;48.112;16.280;2023-03-31T10:16:11;0.85;;;0.85;;
71759;SDS011;59919;48.112;16.280;2023-03-31T10:18:53;1.17;;;0.63;;
71759;SDS011;59919;48.112;16.280;2023-03-31T10:21:27;1.75;;;0.90;;
71759;SDS011;59919;48.112;16.280;2023-03-31T10:24:08;1.17;;;0.57;;
71759;SDS011;59919;48.112;16.280;2023-03-31T10:26:45;1.15;;;0.70;;
71759;SDS011;59919;48.112;16.280;2023-03-31T10:29:23;0.80;;;0.60;;
71759;SDS011;59919;48.112;16.280;2023-03-31T10:32:12;0.70;;;0.70;;
71759;SDS011;59919;48.112;16.280;2023-03-31T10:35:02;1.05;;;0.73;;
71759;SDS011;59919;48.112;16.280;2023-03-31T10:37:39;3.25;;;0.80;;
71759;SDS011;59919;48.112;16.280;2023-03-31T10:45:49;3.05;;;0.70;;
71759;SDS011;59919;48.112;16.280;2023-03-31T10:48:25;1.02;;;0.73;;
71759;SDS011;59919;48.112;16.280;2023-03-31T10:53:54;1.73;;;0.80;;
71759;SDS011;59919;48.112;16.280;2023-03-31T10:59:13;2.97;;;0.80;;
71759;SDS011;59919;48.112;16.280;2023-03-31T11:19:29;2.25;;;0.82;;
71759;SDS011;59919;48.112;16.280;2023-03-31T11:30:56;1.13;;;0.68;;
71759;SDS011;59919;48.112;16.280;2023-03-31T11:33:50;21.27;;;2.67;;
71759;SDS011;59919;48.112;16.280;2023-03-31T11:42:40;21.23;;;2.92;;
71759;SDS011;59919;48.112;16.280;2023-03-31T11:45:24;18.90;;;2.70;;
71759;SDS011;59919;48.112;16.280;2023-03-31T11:48:04;13.68;;;2.20;;
71759;SDS011;59919;48.112;16.280;2023-03-31T11:50:44;18.17;;;2.95;;
71759;SDS011;59919;48.112;16.280;2023-03-31T11:53:18;16.40;;;2.10;;
71759;SDS011;59919;48.112;16.280;2023-03-31T11:55:55;20.75;;;2.13;;
71759;SDS011;59919;48.112;16.280;2023-03-31T11:58:30;13.30;;;1.90;;
71759;SDS011;59919;48.112;16.280;2023-03-31T12:01:20;14.27;;;1.95;;
71759;SDS011;59919;48.112;16.280;2023-03-31T12:04:10;17.08;;;1.88;;
71759;SDS011;59919;48.112;16.280;2023-03-31T12:10:17;11.27;;;1.75;;
71759;SDS011;59919;48.112;16.280;2023-03-31T12:16:20;6.68;;;1.35;;
71759;SDS011;59919;48.112;16.280;2023-03-31T12:21:50;8.52;;;1.75;;
71759;SDS011;59919;48.112;16.280;2023-03-31T12:24:38;9.65;;;1.83;;
71759;SDS011;59919;48.112;16.280;2023-03-31T12:30:05;11.00;;;1.63;;
71759;SDS011;59919;48.112;16.280;2023-03-31T12:32:52;8.77;;;1.60;;
71759;SDS011;59919;48.112;16.280;2023-03-31T12:39:06;5.90;;;1.35;;
71759;SDS011;59919;48.112;16.280;2023-03-31T12:44:56;4.90;;;1.20;;
71759;SDS011;59919;48.112;16.280;2023-03-31T13:02:25;4.50;;;1.33;;
71759;SDS011;59919;48.112;16.280;2023-03-31T13:04:56;4.03;;;1.20;;
71759;SDS011;59919;48.112;16.280;2023-03-31T13:07:47;5.15;;;1.27;;
71759;SDS011;59919;48.112;16.280;2023-03-31T13:10:26;4.93;;;0.95;;
71759;SDS011;59919;48.112;16.280;2023-03-31T13:13:05;3.22;;;1.20;;
71759;SDS011;59919;48.112;16.280;2023-03-31T13:15:54;3.13;;;1.15;;
71759;SDS011;59919;48.112;16.280;2023-03-31T13:18:27;4.25;;;1.40;;
71759;SDS011;59919;48.112;16.280;2023-03-31T13:21:03;6.95;;;1.27;;
71759;SDS011;59919;48.112;16.280;2023-03-31T13:23:37;8.25;;;1.10;;
71759;SDS011;59919;48.112;16.280;2023-03-31T13:29:08;3.83;;;1.00;;
71759;SDS011;59919;48.112;16.280;2023-03-31T13:38:01;2.53;;;0.90;;
71759;SDS011;59919;48.112;16.280;2023-03-31T14:01:43;2.63;;;0.90;;
71759;SDS011;59919;48.112;16.280;2023-03-31T14:07:43;3.58;;;1.13;;
71759;SDS011;59919;48.112;16.280;2023-03-31T14:15:54;2.33;;;0.77;;
71759;SDS011;59919;48.112;16.280;2023-03-31T14:18:28;1.00;;;0.70;;
71759;SDS011;59919;48.112;16.280;2023-03-31T14:35:11;1.98;;;0.80;;
71759;SDS011;59919;48.112;16.280;2023-03-31T14:37:48;1.60;;;0.93;;
71759;SDS011;59919;48.112;16.280;2023-03-31T14:40:20;2.55;;;1.00;;
71759;SDS011;59919;48.112;16.280;2023-03-31T14:42:52;2.30;;;1.00;;
71759;SDS011;59919;48.112;16.280;2023-03-31T14:45:24;2.13;;;0.77;;
71759;SDS011;59919;48.112;16.280;2023-03-31T14:48:10;1.33;;;0.90;;
71759;SDS011;59919;48.112;16.280;2023-03-31T14:50:44;3.75;;;1.02;;
71759;SDS011;59919;48.112;16.280;2023-03-31T14:53:22;2.60;;;0.73;;
71759;SDS011;59919;48.112;16.280;2023-03-31T14:56:04;1.40;;;0.75;;
71759;SDS011;59919;48.112;16.280;2023-03-31T14:58:52;1.73;;;0.80;;
71759;SDS011;59919;48.112;16.280;2023-03-31T15:01:27;1.95;;;0.80;;
71759;SDS011;59919;48.112;16.280;2023-03-31T15:04:10;1.20;;;0.80;;
71759;SDS011;59919;48.112;16.280;2023-03-31T15:06:45;2.50;;;0.80;;
71759;SDS011;59919;48.112;16.280;2023-03-31T15:09:36;0.90;;;0.60;;
71759;SDS011;59919;48.112;16.280;2023-03-31T15:12:11;0.90;;;0.75;;
71759;SDS011;59919;48.112;16.280;2023-03-31T15:14:50;2.58;;;1.42;;
71759;SDS011;59919;48.112;16.280;2023-03-31T15:17:35;1.13;;;1.02;;
71759;SDS011;59919;48.112;16.280;2023-03-31T15:20:27;1.45;;;0.80;;
71759;SDS011;59919;48.112;16.280;2023-03-31T15:23:20;1.23;;;0.90;;
71759;SDS011;59919;48.112;16.280;2023-03-31T15:26:00;1.63;;;0.82;;
71759;SDS011;59919;48.112;16.280;2023-03-31T15:28:38;1.23;;;0.68;;
71759;SDS011;59919;48.112;16.280;2023-03-31T15:31:16;0.70;;;0.60;;
71759;SDS011;59919;48.112;16.280;2023-03-31T15:33:48;3.67;;;0.80;;
71759;SDS011;59919;48.112;16.280;2023-03-31T15:36:25;0.70;;;0.60;;
71759;SDS011;59919;48.112;16.280;2023-03-31T15:38:59;3.08;;;1.05;;
71759;SDS011;59919;48.112;16.280;2023-03-31T15:41:30;1.10;;;0.75;;
71759;SDS011;59919;48.112;16.280;2023-03-31T15:47:19;2.08;;;0.80;;
71759;SDS011;59919;48.112;16.280;2023-03-31T15:52:49;1.10;;;0.70;;
71759;SDS011;59919;48.112;16.280;2023-03-31T15:58:00;0.90;;;0.50;;
71759;SDS011;59919;48.112;16.280;2023-03-31T16:03:16;1.15;;;0.90;;
71759;SDS011;59919;48.112;16.280;2023-03-31T16:05:59;1.13;;;0.85;;
71759;SDS011;59919;48.112;16.280;2023-03-31T16:08:43;1.35;;;0.85;;
71759;SDS011;59919;48.112;16.280;2023-03-31T16:11:32;1.90;;;0.82;;
71759;SDS011;59919;48.112;16.280;2023-03-31T16:14:15;0.98;;;0.75;;
71759;SDS011;59919;48.112;16.280;2023-03-31T16:17:22;0.80;;;0.70;;
71759;SDS011;59919;48.112;16.280;2023-03-31T16:20:07;2.33;;;1.08;;
71759;SDS011;59919;48.112;16.280;2023-03-31T16:22:48;2.10;;;0.77;;
71759;SDS011;59919;48.112;16.280;2023-03-31T16:25:22;3.35;;;0.82;;
71759;SDS011;59919;48.112;16.280;2023-03-31T16:27:58;3.28;;;0.75;;
71759;SDS011;59919;48.112;16.280;2023-03-31T16:30:41;3.75;;;1.05;;
71759;SDS011;59919;48.112;16.280;2023-03-31T16:33:14;4.57;;;0.90;;
71759;SDS011;59919;48.112;16.280;2023-03-31T16:35:48;1.42;;;0.88;;
71759;SDS011;59919;48.112;16.280;2023-03-31T16:38:27;0.80;;;0.57;;
71759;SDS011;59919;48.112;16.280;2023-03-31T16:40:59;1.80;;;0.80;;
71759;SDS011;59919;48.112;16.280;2023-03-31T16:43:30;1.42;;;0.73;;
71759;SDS011;59919;48.112;16.280;2023-03-31T16:46:03;3.33;;;0.80;;
71759;SDS011;59919;48.112;16.280;2023-03-31T16:48:37;2.40;;;0.80;;
71759;SDS011;59919;48.112;16.280;2023-03-31T16:51:10;2.05;;;0.73;;
71759;SDS011;59919;48.112;16.280;2023-03-31T16:53:42;6.65;;;1.00;;
71759;SDS011;59919;48.112;16.280;2023-03-31T16:56:14;0.95;;;0.80;;
71759;SDS011;59919;48.112;16.280;2023-03-31T16:58:45;2.55;;;0.80;;
71759;SDS011;59919;48.112;16.280;2023-03-31T17:01:16;1.20;;;0.80;;
71759;SDS011;59919;48.112;16.280;2023-03-31T17:03:50;3.20;;;0.70;;
71759;SDS011;59919;48.112;16.280;2023-03-31T17:06:21;2.83;;;0.90;;
71759;SDS011;59919;48.112;16.280;2023-03-31T17:08:52;1.08;;;0.73;;
71759;SDS011;59919;48.112;16.280;2023-03-31T17:11:25;1.98;;;0.70;;
71759;SDS011;59919;48.112;16.280;2023-03-31T17:13:57;4.07;;;0.90;;
71759;SDS011;59919;48.112;16.280;2023-03-31T17:16:34;2.15;;;0.60;;
71759;SDS011;59919;48.112;16.280;2023-03-31T17:19:08;2.67;;;0.82;;
71759;SDS011;59919;48.112;16.280;2023-03-31T17:21:42;1.23;;;0.80;;
71759;SDS011;59919;48.112;16.280;2023-03-31T17:24:13;1.20;;;0.60;;
71759;SDS011;59919;48.112;16.280;2023-03-31T17:26:44;1.00;;;0.65;;
71759;SDS011;59919;48.112;16.280;2023-03-31T17:29:18;2.10;;;0.63;;
71759;SDS011;59919;48.112;16.280;2023-03-31T17:31:54;2.63;;;0.70;;
71759;SDS011;59919;48.112;16.280;2023-03-31T17:34:27;1.10;;;0.65;;
71759;SDS011;59919;48.112;16.280;2023-03-31T17:36:58;0.80;;;0.70;;
71759;SDS011;59919;48.112;16.280;2023-03-31T17:39:29;0.80;;;0.65;;
71759;SDS011;59919;48.112;16.280;2023-03-31T17:42:00;1.35;;;0.70;;
71759;SDS011;59919;48.112;16.280;2023-03-31T17:44:33;2.17;;;0.60;;
71759;SDS011;59919;48.112;16.280;2023-03-31T17:47:07;0.90;;;0.68;;
71759;SDS011;59919;48.112;16.280;2023-03-31T17:49:38;1.20;;;0.60;;
71759;SDS011;59919;48.112;16.280;2023-03-31T17:52:10;0.50;;;0.50;;
71759;SDS011;59919;48.112;16.280;2023-03-31T17:54:41;0.85;;;0.65;;
71759;SDS011;59919;48.112;16.280;2023-03-31T17:57:13;1.27;;;0.70;;
71759;SDS011;59919;48.112;16.280;2023-03-31T17:59:44;1.83;;;0.77;;
71759;SDS011;59919;48.112;16.280;2023-03-31T18:02:19;1.25;;;0.70;;
71759;SDS011;59919;48.112;16.280;2023-03-31T18:04:50;1.45;;;0.60;;
71759;SDS011;59919;48.112;16.280;2023-03-31T18:07:25;1.13;;;0.50;;
71759;SDS011;59919;48.112;16.280;2023-03-31T18:09:56;2.53;;;0.80;;
71759;SDS011;59919;48.112;16.280;2023-03-31T18:15:07;2.28;;;0.95;;
71759;SDS011;59919;48.112;16.280;2023-03-31T18:17:41;1.35;;;0.70;;
71759;SDS011;59919;48.112;16.280;2023-03-31T18:20:15;1.63;;;0.73;;
71759;SDS011;59919;48.112;16.280;2023-03-31T18:22:47;0.90;;;0.70;;
71759;SDS011;59919;48.112;16.280;2023-03-31T18:25:18;0.43;;;0.40;;
71759;SDS011;59919;48.112;16.280;2023-03-31T18:27:50;0.85;;;0.60;;
71759;SDS011;59919;48.112;16.280;2023-03-31T18:30:21;0.85;;;0.60;;
71759;SDS011;59919;48.112;16.280;2023-03-31T18:32:52;0.90;;;0.73;;
71759;SDS011;59919;48.112;16.280;2023-03-31T18:35:26;0.85;;;0.68;;
71759;SDS011;59919;48.112;16.280;2023-03-31T18:37:58;1.00;;;0.57;;
71759;SDS011;59919;48.112;16.280;2023-03-31T18:40:32;0.75;;;0.60;;
71759;SDS011;59919;48.112;16.280;2023-03-31T18:43:03;0.82;;;0.50;;
71759;SDS011;59919;48.112;16.280;2023-03-31T18:45:35;1.20;;;0.82;;
71759;SDS011;59919;48.112;16.280;2023-03-31T18:48:08;1.23;;;0.50;;
71759;SDS011;59919;48.112;16.280;2023-03-31T18:50:41;0.90;;;0.63;;
71759;SDS011;59919;48.112;16.280;2023-03-31T18:53:15;2.13;;;0.60;;
71759;SDS011;59919;48.112;16.280;2023-03-31T18:55:48;0.80;;;0.70;;
71759;SDS011;59919;48.112;16.280;2023-03-31T18:58:20;1.35;;;0.60;;
71759;SDS011;59919;48.112;16.280;2023-03-31T19:00:53;0.70;;;0.50;;
71759;SDS011;59919;48.112;16.280;2023-03-31T19:03:26;0.77;;;0.70;;
71759;SDS011;59919;48.112;16.280;2023-03-31T19:06:02;0.88;;;0.70;;
71759;SDS011;59919;48.112;16.280;2023-03-31T19:08:35;0.80;;;0.55;;